createdAt,value
2024-01-15T00:00:23.859Z,29.712000
2024-01-15T00:05:17.525Z,29.712000
2024-01-15T00:10:23.894Z,29.712000
2024-01-15T00:15:23.697Z,29.731000
2024-01-15T00:20:15.549Z,29.731000
2024-01-15T00:25:15.612Z,29.731000
2024-01-15T00:30:24.101Z,29.750000
2024-01-15T00:35:17.816Z,29.750000
2024-01-15T00:40:23.809Z,29.750000
2024-01-15T00:45:25.119Z,29.761000
2024-01-15T00:51:02.358Z,29.761000
2024-01-15T00:55:16.712Z,29.761000
2024-01-15T01:00:16.762Z,29.768000
2024-01-15T01:05:20.730Z,29.768000
2024-01-15T01:10:26.934Z,29.768000
2024-01-15T01:15:24.981Z,29.790000
2024-01-15T01:20:24.982Z,29.790000
2024-01-15T01:25:24.962Z,29.790000
2024-01-15T01:30:27.561Z,29.810000
2024-01-15T01:35:26.299Z,29.810000
2024-01-15T01:40:18.895Z,29.810000
2024-01-15T01:45:25.342Z,29.824000
2024-01-15T01:50:17.757Z,29.824000
2024-01-15T01:55:19.717Z,29.824000
2024-01-15T02:00:19.177Z,29.827000
2024-01-15T02:05:25.199Z,29.827000
2024-01-15T02:10:25.127Z,29.827000
2024-01-15T02:15:25.906Z,29.839000
2024-01-15T02:20:25.329Z,29.839000
2024-01-15T02:25:25.401Z,29.839000
2024-01-15T02:30:25.111Z,29.843000
2024-01-15T02:35:25.164Z,29.843000
2024-01-15T02:40:18.868Z,29.843000
2024-01-15T02:45:17.291Z,29.855000
2024-01-15T02:50:18.945Z,29.855000
2024-01-15T02:55:19.262Z,29.855000
2024-01-15T03:00:25.462Z,29.859000
2024-01-15T03:05:25.350Z,29.859000
2024-01-15T03:10:27.908Z,29.859000
2024-01-15T03:15:19.028Z,29.869000
2024-01-15T03:20:25.172Z,29.869000
2024-01-15T03:25:25.631Z,29.869000
2024-01-15T03:30:25.753Z,29.875000
2024-01-15T03:35:17.226Z,29.875000
2024-01-15T03:40:20.209Z,29.875000
2024-01-15T03:45:25.604Z,29.878000
2024-01-15T03:50:19.359Z,29.878000
2024-01-15T03:55:21.045Z,29.878000
2024-01-15T04:00:25.481Z,29.878000
2024-01-15T04:05:19.041Z,29.878000
2024-01-15T04:10:26.934Z,29.878000
2024-01-15T04:15:20.935Z,29.884000
2024-01-15T04:20:26.069Z,29.884000
2024-01-15T04:25:25.333Z,29.884000
2024-01-15T04:30:17.253Z,29.887000
2024-01-15T04:35:17.474Z,29.887000
2024-01-15T04:40:25.649Z,29.887000
2024-01-15T04:45:25.689Z,29.888000
2024-01-15T04:50:25.368Z,29.888000
2024-01-15T04:55:25.332Z,29.888000
2024-01-15T05:00:24.896Z,29.899000
2024-01-15T05:05:18.735Z,29.899000
2024-01-15T05:10:24.707Z,29.899000
2024-01-15T05:15:24.899Z,29.900000
2024-01-15T05:20:24.741Z,29.900000
2024-01-15T05:25:24.895Z,29.900000
2024-01-15T05:30:25.047Z,29.900000
2024-01-15T05:35:24.818Z,29.900000
2024-01-15T05:40:16.568Z,29.900000
2024-01-15T05:45:16.826Z,29.897000
2024-01-15T05:50:24.949Z,29.897000
2024-01-15T05:55:24.782Z,29.897000
2024-01-15T06:00:18.683Z,29.903000
2024-01-15T06:05:18.600Z,29.903000
2024-01-15T06:10:24.899Z,29.903000
2024-01-15T06:15:18.501Z,29.911000
2024-01-15T06:20:18.705Z,29.911000
2024-01-15T06:25:24.845Z,29.911000
2024-01-15T06:30:25.073Z,29.919000
2024-01-15T06:35:17.865Z,29.919000
2024-01-15T06:40:24.887Z,29.919000
2024-01-15T06:45:18.751Z,29.920000
2024-01-15T06:50:18.738Z,29.920000
2024-01-15T06:55:24.888Z,29.920000
2024-01-15T07:00:25.157Z,29.931000
2024-01-15T07:05:24.995Z,29.931000
2024-01-15T07:10:25.014Z,29.931000
2024-01-15T07:15:25.071Z,29.936000
2024-01-15T07:20:18.789Z,29.936000
2024-01-15T07:25:16.875Z,29.936000
2024-01-15T07:30:16.933Z,29.947000
2024-01-15T07:35:18.910Z,29.947000
2024-01-15T07:40:25.130Z,29.947000
2024-01-15T07:45:25.211Z,29.955000
2024-01-15T07:50:25.210Z,29.955000
2024-01-15T07:55:18.758Z,29.955000
2024-01-15T08:00:18.993Z,29.958000
2024-01-15T08:05:18.943Z,29.958000
2024-01-15T08:10:25.069Z,29.958000
2024-01-15T08:15:28.041Z,29.964000
2024-01-15T08:20:17.056Z,29.964000
2024-01-15T08:25:16.977Z,29.964000
2024-01-15T08:30:25.397Z,29.978000
2024-01-15T08:35:25.307Z,29.978000
2024-01-15T08:40:25.135Z,29.978000
2024-01-15T08:45:25.277Z,29.979000
2024-01-15T08:50:25.284Z,29.979000
2024-01-15T08:55:19.178Z,29.979000
2024-01-15T09:00:19.325Z,29.980000
2024-01-15T09:05:19.251Z,29.980000
2024-01-15T09:10:19.123Z,29.980000
2024-01-15T09:15:17.160Z,29.987000
2024-01-15T09:20:25.365Z,29.987000
2024-01-15T09:25:19.193Z,29.987000
2024-01-15T09:30:25.477Z,29.989000
2024-01-15T09:35:19.989Z,29.989000
2024-01-15T09:40:25.449Z,29.989000
2024-01-15T09:45:19.309Z,29.994000
2024-01-15T09:50:25.478Z,29.994000
2024-01-15T09:55:25.493Z,29.994000
2024-01-15T10:00:19.513Z,30.000000
2024-01-15T10:05:25.443Z,30.000000
2024-01-15T10:10:17.346Z,30.000000
2024-01-15T10:15:19.234Z,30.004000
2024-01-15T10:20:25.432Z,30.004000
2024-01-15T10:25:25.831Z,30.004000
2024-01-15T10:30:25.748Z,30.005000
2024-01-15T10:35:25.644Z,30.005000
2024-01-15T10:40:19.609Z,30.005000
2024-01-15T10:45:25.624Z,30.011000
2024-01-15T10:50:19.374Z,30.011000
2024-01-15T10:55:20.146Z,30.011000
2024-01-15T11:00:17.494Z,30.013000
2024-01-15T11:05:17.496Z,30.013000
2024-01-15T11:10:19.465Z,30.013000
2024-01-15T11:15:19.534Z,30.016000
2024-01-15T11:20:25.569Z,30.016000
2024-01-15T11:25:19.472Z,30.016000
2024-01-15T11:30:19.558Z,30.023000
2024-01-15T11:35:17.824Z,30.023000
2024-01-15T11:40:15.504Z,30.023000
2024-01-15T11:45:15.539Z,30.025000
2024-01-15T11:50:17.529Z,30.025000
2024-01-15T11:55:17.614Z,30.025000
2024-01-15T12:00:23.915Z,30.025000
2024-01-15T12:05:23.875Z,30.025000
2024-01-15T12:10:23.783Z,30.025000
2024-01-15T12:15:23.767Z,30.027000
2024-01-15T12:20:23.780Z,30.027000
2024-01-15T12:25:23.867Z,30.027000
2024-01-15T12:30:24.016Z,30.034000
2024-01-15T12:35:15.688Z,30.034000
2024-01-15T12:40:15.670Z,30.034000
2024-01-15T12:45:24.114Z,30.042000
2024-01-15T12:50:20.160Z,30.042000
2024-01-15T12:55:17.891Z,30.042000
2024-01-15T13:00:24.331Z,30.042000
2024-01-15T13:05:18.110Z,30.042000
2024-01-15T13:10:26.360Z,30.042000
2024-01-15T13:15:23.978Z,30.047000
2024-01-15T13:20:17.998Z,30.047000
2024-01-15T13:25:17.883Z,30.047000
2024-01-15T13:30:15.963Z,30.049000
2024-01-15T13:35:24.064Z,30.049000
2024-01-15T13:40:24.024Z,30.049000
2024-01-15T13:45:17.904Z,30.050000
2024-01-15T13:50:26.060Z,30.050000
2024-01-15T13:55:55.145Z,30.050000
2024-01-15T14:00:24.105Z,30.050000
2024-01-15T14:05:24.185Z,30.050000
2024-01-15T14:10:17.866Z,30.050000
2024-01-15T14:15:17.867Z,30.045000
2024-01-15T14:20:16.889Z,30.045000
2024-01-15T14:25:15.980Z,30.045000
2024-01-15T14:30:24.435Z,30.053000
2024-01-15T14:35:17.998Z,30.053000
2024-01-15T14:40:18.302Z,30.053000
2024-01-15T14:45:24.307Z,30.046000
2024-01-15T14:50:24.219Z,30.046000
2024-01-15T14:55:24.389Z,30.046000
2024-01-15T15:00:18.329Z,30.043000
2024-01-15T15:05:18.261Z,30.043000
2024-01-15T15:10:24.314Z,30.043000
2024-01-15T15:15:19.544Z,30.040000
2024-01-15T15:20:16.401Z,30.040000
2024-01-15T15:25:18.150Z,30.040000
2024-01-15T15:30:24.496Z,30.035000
2024-01-15T15:35:24.379Z,30.035000
2024-01-15T15:40:24.268Z,30.035000
2024-01-15T15:45:24.402Z,30.024000
2024-01-15T15:50:24.515Z,30.024000
2024-01-15T15:55:18.151Z,30.024000
2024-01-15T16:00:24.624Z,30.012000
2024-01-15T16:05:18.289Z,30.012000
2024-01-15T16:10:16.234Z,30.012000
2024-01-15T16:15:16.399Z,30.004000
2024-01-15T16:23:30.410Z,30.004000
2024-01-15T16:23:36.779Z,30.004000
2024-01-15T16:23:42.703Z,30.004000
2024-01-15T16:25:19.023Z,30.004000
2024-01-15T16:30:25.844Z,29.994000
2024-01-15T16:35:18.351Z,29.994000
2024-01-15T16:40:24.539Z,29.994000
2024-01-15T16:45:24.550Z,29.986000
2024-01-15T16:50:24.601Z,29.986000
2024-01-15T16:55:18.478Z,29.986000
2024-01-15T17:00:16.391Z,29.975000
2024-01-15T17:05:16.559Z,29.975000
2024-01-15T17:10:18.319Z,29.975000
2024-01-15T17:15:18.496Z,29.975000
2024-01-15T17:20:24.669Z,29.975000
2024-01-15T17:25:18.341Z,29.975000
2024-01-15T17:30:24.627Z,29.966000
2024-01-15T17:35:18.508Z,29.966000
2024-01-15T17:40:24.667Z,29.966000
2024-01-15T17:45:24.921Z,29.966000
2024-01-15T17:50:24.707Z,29.966000
2024-01-15T17:55:16.578Z,29.966000
2024-01-15T18:00:16.567Z,29.959000
2024-01-15T18:05:24.936Z,29.959000
2024-01-15T18:10:18.496Z,29.959000
2024-01-15T18:15:24.650Z,29.955000
2024-01-15T18:20:24.737Z,29.955000
2024-01-15T18:25:24.702Z,29.955000
2024-01-15T18:30:24.822Z,29.951000
2024-01-15T18:35:18.603Z,29.951000
2024-01-15T18:40:24.868Z,29.951000
2024-01-15T18:45:24.835Z,29.953000
2024-01-15T18:50:16.720Z,29.953000
2024-01-15T18:55:18.642Z,29.953000
2024-01-15T19:00:18.604Z,29.952000
2024-01-15T19:05:24.967Z,29.952000
2024-01-15T19:10:24.915Z,29.952000
2024-01-15T19:15:24.989Z,29.948000
2024-01-15T19:20:18.714Z,29.948000
2024-01-15T19:25:18.751Z,29.948000
2024-01-15T19:30:18.680Z,29.945000
2024-01-15T19:35:18.786Z,29.945000
2024-01-15T19:40:16.928Z,29.945000
2024-01-15T19:45:16.750Z,29.949000
2024-01-15T19:50:25.023Z,29.949000
2024-01-15T19:55:25.167Z,29.949000
2024-01-15T20:00:25.068Z,29.957000
2024-01-15T20:05:25.192Z,29.957000
2024-01-15T20:10:25.073Z,29.957000
2024-01-15T20:15:24.967Z,29.968000
2024-01-15T20:20:18.959Z,29.968000
2024-01-15T20:25:18.861Z,29.968000
2024-01-15T20:30:25.174Z,29.976000
2024-01-15T20:35:16.903Z,29.976000
2024-01-15T20:40:16.950Z,29.976000
2024-01-15T20:45:25.531Z,29.975000
2024-01-15T20:50:18.944Z,29.975000
2024-01-15T20:55:18.789Z,29.975000
2024-01-15T21:00:18.925Z,29.983000
2024-01-15T21:05:25.312Z,29.983000
2024-01-15T21:10:25.254Z,29.983000
2024-01-15T21:15:18.985Z,29.987000
2024-01-15T21:20:25.351Z,29.987000
2024-01-15T21:25:19.016Z,29.987000
2024-01-15T21:30:17.018Z,29.993000
2024-01-15T21:35:17.319Z,29.993000
2024-01-15T21:40:25.401Z,29.993000
2024-01-15T21:45:19.146Z,29.994000
2024-01-15T21:50:25.217Z,29.994000
2024-01-15T21:55:19.090Z,29.994000
2024-01-15T22:00:25.425Z,29.992000
2024-01-15T22:05:25.409Z,29.992000
2024-01-15T22:10:25.326Z,29.992000
2024-01-15T22:15:19.132Z,29.989000
2024-01-15T22:20:17.210Z,29.989000
2024-01-15T22:25:17.319Z,29.989000
2024-01-15T22:30:25.394Z,29.991000
2024-01-15T22:35:25.481Z,29.991000
2024-01-15T22:40:25.420Z,29.991000
2024-01-15T22:45:25.502Z,29.996000
2024-01-15T22:50:19.238Z,29.996000
2024-01-15T22:55:25.540Z,29.996000
2024-01-15T23:00:19.386Z,29.997000
2024-01-15T23:05:25.738Z,29.997000
2024-01-15T23:10:19.293Z,29.997000
2024-01-15T23:15:17.362Z,30.002000
2024-01-15T23:20:17.245Z,30.002000
2024-01-15T23:25:19.409Z,30.002000
2024-01-15T23:30:19.474Z,30.001000
2024-01-15T23:35:25.602Z,30.001000
2024-01-15T23:40:26.575Z,30.001000
2024-01-15T23:45:19.231Z,30.008000
2024-01-15T23:50:25.607Z,30.008000
2024-01-15T23:55:19.290Z,30.008000
